createdAt,value
2022-11-16T06:24:02.803Z,36.33
2022-11-16T06:26:30.870Z,37.10
2022-11-16T06:28:58.283Z,36.63
2022-11-16T06:31:26.038Z,36.33
2022-11-16T06:33:55.151Z,37.20
2022-11-16T06:36:26.224Z,39.33
2022-11-16T06:38:54.363Z,36.70
2022-11-16T06:41:22.969Z,37.97
2022-11-16T06:43:54.041Z,37.10
2022-11-16T06:46:26.273Z,35.97
2022-11-16T06:48:54.465Z,33.87
2022-11-16T06:51:22.364Z,37.97
2022-11-16T06:53:49.866Z,34.67
2022-11-16T06:56:17.493Z,37.30
2022-11-16T06:58:53.543Z,34.30
2022-11-16T07:01:21.610Z,37.30
2022-11-16T07:03:51.358Z,34.33
2022-11-16T07:06:19.014Z,35.30
2022-11-16T07:08:47.805Z,37.20
2022-11-16T07:11:20.374Z,36.67
2022-11-16T07:13:49.285Z,35.87
2022-11-16T07:16:17.151Z,36.80
2022-11-16T07:18:51.792Z,35.43
2022-11-16T07:21:19.601Z,35.70
2022-11-16T07:23:47.397Z,33.97
2022-11-16T07:26:19.637Z,36.73
2022-11-16T07:28:53.282Z,37.80
2022-11-16T07:31:22.778Z,39.03
2022-11-16T07:34:10.010Z,35.97
2022-11-16T07:36:48.103Z,35.97
2022-11-16T07:40:08.636Z,35.70
2022-11-16T07:42:38.655Z,37.50
2022-11-16T07:45:13.692Z,34.80
2022-11-16T07:47:52.358Z,37.13
2022-11-16T07:50:37.180Z,39.40
2022-11-16T07:53:07.645Z,38.17
2022-11-16T07:55:35.411Z,37.30
2022-11-16T07:58:03.474Z,39.20
2022-11-16T08:00:30.961Z,38.20
2022-11-16T08:03:08.269Z,37.70
2022-11-16T08:05:36.218Z,39.20
2022-11-16T08:08:03.539Z,38.57
2022-11-16T08:10:33.890Z,39.93
2022-11-16T08:13:01.475Z,39.60
2022-11-16T08:15:29.564Z,39.60
2022-11-16T08:18:00.296Z,36.80
2022-11-16T08:20:29.060Z,36.93
2022-11-16T08:23:01.111Z,35.60
2022-11-16T08:25:32.429Z,39.27
2022-11-16T08:27:59.984Z,40.37
2022-11-16T08:30:27.549Z,36.70
2022-11-16T08:32:55.481Z,35.27
2022-11-16T08:35:23.421Z,32.70
2022-11-16T08:40:37.191Z,30.27
2022-11-16T08:43:05.624Z,33.87
2022-11-16T08:45:34.246Z,30.53
2022-11-16T08:48:05.047Z,28.93
2022-11-16T08:50:55.474Z,27.43
2022-11-16T08:53:23.904Z,25.43
2022-11-16T08:55:51.515Z,29.50
2022-11-16T08:58:19.138Z,28.40
2022-11-16T09:00:46.499Z,26.10
2022-11-16T09:03:14.039Z,23.20
2022-11-16T09:05:42.585Z,25.40
2022-11-16T09:08:09.970Z,23.83
2022-11-16T09:10:38.456Z,22.10
2022-11-16T09:13:05.747Z,23.50
2022-11-16T09:15:33.191Z,21.33
2022-11-16T09:18:00.562Z,20.33
2022-11-16T09:20:27.919Z,18.40
2022-11-16T09:22:55.376Z,15.97
2022-11-16T09:25:23.652Z,17.30
2022-11-16T09:27:51.044Z,17.00
2022-11-16T09:30:18.487Z,14.47
2022-11-16T09:32:45.785Z,13.90
2022-11-16T09:35:13.157Z,14.73
2022-11-16T09:37:40.608Z,16.23
2022-11-16T09:40:12.125Z,16.30
2022-11-16T09:42:59.245Z,14.87
2022-11-16T09:45:30.931Z,13.67
2022-11-16T09:48:01.564Z,16.40
2022-11-16T09:50:35.243Z,15.90
2022-11-16T09:53:08.541Z,17.43
2022-11-16T09:55:40.890Z,14.47
2022-11-16T09:58:16.575Z,14.43
2022-11-16T10:00:45.463Z,16.83
2022-11-16T10:03:14.323Z,17.90
2022-11-16T10:05:45.566Z,16.50
2022-11-16T10:08:19.203Z,14.93
2022-11-16T10:11:06.851Z,13.73
2022-11-16T10:13:40.715Z,12.60
2022-11-16T10:16:19.759Z,14.90
2022-11-16T10:18:53.173Z,13.87
2022-11-16T10:21:30.057Z,18.50
2022-11-16T10:24:06.452Z,14.53
2022-11-16T10:26:59.957Z,13.73
2022-11-16T10:29:35.087Z,12.93
2022-11-16T10:32:07.429Z,13.47
2022-11-16T10:34:43.923Z,13.03
2022-11-16T10:37:14.062Z,12.20
2022-11-16T10:39:41.935Z,11.40
2022-11-16T10:42:16.566Z,12.05
2022-11-16T10:44:48.484Z,11.93
2022-11-16T10:47:27.125Z,11.77
2022-11-16T10:50:00.596Z,10.37
2022-11-16T10:52:28.585Z,11.87
2022-11-16T10:54:58.467Z,11.53
2022-11-16T10:57:26.591Z,11.10
2022-11-16T10:59:55.663Z,10.70
2022-11-16T11:02:26.051Z,9.83
2022-11-16T11:05:16.577Z,10.07
2022-11-16T11:07:54.066Z,11.70
2022-11-16T11:10:30.564Z,9.23
2022-11-16T11:13:04.003Z,8.80
2022-11-16T11:15:34.068Z,10.67
2022-11-16T11:18:25.407Z,10.27
2022-11-16T11:20:58.766Z,9.67
2022-11-16T11:23:26.788Z,9.80
2022-11-16T11:26:01.042Z,9.63
2022-11-16T11:28:32.611Z,8.30
2022-11-16T11:31:02.867Z,7.23
2022-11-16T11:33:32.160Z,8.33
2022-11-16T11:36:02.198Z,9.13
2022-11-16T11:38:29.830Z,8.47
2022-11-16T11:40:58.787Z,9.10
2022-11-16T11:43:26.575Z,8.03
2022-11-16T11:46:04.945Z,7.43
2022-11-16T11:48:38.027Z,9.83
2022-11-16T11:51:17.545Z,7.83
2022-11-16T11:53:53.208Z,6.70
2022-11-16T11:56:22.010Z,8.00
2022-11-16T11:58:49.919Z,7.70
2022-11-16T12:01:28.539Z,7.13
2022-11-16T12:04:08.518Z,10.53
2022-11-16T12:06:59.421Z,7.93
2022-11-16T12:09:35.894Z,4.83
2022-11-16T12:12:36.952Z,5.47
2022-11-16T12:15:28.227Z,7.20
2022-11-16T12:18:12.835Z,6.00
2022-11-16T12:20:58.704Z,5.70
2022-11-16T12:23:28.737Z,5.97
2022-11-16T12:26:19.383Z,11.20
2022-11-16T12:29:05.547Z,12.23
2022-11-16T12:31:32.839Z,5.63
2022-11-16T12:34:18.603Z,5.10
2022-11-16T12:36:56.038Z,7.07
2022-11-16T12:39:52.749Z,9.93
2022-11-16T12:42:19.996Z,5.70
2022-11-16T12:45:05.986Z,5.80
2022-11-16T12:47:47.645Z,7.37
2022-11-16T12:50:20.877Z,7.80
2022-11-16T12:52:48.356Z,6.00
2022-11-16T12:55:28.263Z,6.10
2022-11-16T12:58:07.994Z,5.13
2022-11-16T13:00:45.284Z,6.87
2022-11-16T13:03:12.901Z,7.80
2022-11-16T13:05:42.881Z,6.03
2022-11-16T13:08:28.584Z,9.27
2022-11-16T13:11:11.275Z,9.77
2022-11-16T13:13:40.071Z,8.10
2022-11-16T13:16:07.877Z,9.20
2022-11-16T13:18:39.601Z,8.63
2022-11-16T13:21:18.106Z,8.03
2022-11-16T13:23:50.654Z,8.60
2022-11-16T13:26:17.972Z,9.83
2022-11-16T13:29:06.083Z,9.30
2022-11-16T13:31:33.441Z,7.60
2022-11-16T13:34:13.855Z,6.93
2022-11-16T13:36:47.959Z,15.00
2022-11-16T13:39:22.688Z,8.83
2022-11-16T13:41:52.566Z,6.63
2022-11-16T13:44:20.575Z,7.30
2022-11-16T13:46:55.762Z,8.57
2022-11-16T13:49:31.371Z,9.33
2022-11-16T13:52:11.566Z,9.63
2022-11-16T13:54:50.179Z,11.27
2022-11-16T13:57:23.218Z,8.53
2022-11-16T13:59:52.945Z,8.60
2022-11-16T14:02:36.767Z,11.03
2022-11-16T14:05:10.033Z,10.13
2022-11-16T14:07:48.243Z,12.67
2022-11-16T14:10:38.721Z,12.30
2022-11-16T14:13:06.656Z,12.73
2022-11-16T14:15:38.680Z,13.57
2022-11-16T14:18:09.446Z,8.97
2022-11-16T14:20:44.220Z,11.90
2022-11-16T14:23:24.689Z,10.60
2022-11-16T14:25:51.966Z,12.37
2022-11-16T14:28:43.791Z,13.07
2022-11-16T14:31:22.579Z,11.00
2022-11-16T14:33:52.656Z,10.13
2022-11-16T14:36:34.552Z,9.73
2022-11-16T14:39:18.174Z,10.63
2022-11-16T14:41:47.185Z,11.03
2022-11-16T14:44:21.742Z,11.97
2022-11-16T14:46:49.281Z,10.83
2022-11-16T14:49:18.622Z,7.87
2022-11-16T14:51:47.915Z,9.80
2022-11-16T14:54:47.799Z,8.50
2022-11-16T14:57:19.565Z,14.00
2022-11-16T14:59:47.221Z,13.07
2022-11-16T15:02:23.207Z,14.33
2022-11-16T15:04:54.022Z,15.37
2022-11-16T15:07:25.446Z,12.20
2022-11-16T15:09:55.487Z,12.57
2022-11-16T15:12:43.142Z,13.60
2022-11-16T15:15:15.795Z,13.37
2022-11-16T15:17:44.703Z,14.73
2022-11-16T15:20:17.605Z,12.33
2022-11-16T15:22:46.698Z,11.83
2022-11-16T15:25:32.974Z,15.57
2022-11-16T15:28:01.423Z,13.53
2022-11-16T15:30:32.493Z,11.13
2022-11-16T15:32:59.974Z,17.47
2022-11-16T15:35:31.825Z,13.53
2022-11-16T15:38:01.998Z,16.43
2022-11-16T15:40:53.458Z,14.57
2022-11-16T15:43:30.859Z,15.63
2022-11-16T15:45:59.638Z,15.07
2022-11-16T15:48:28.524Z,19.60
2022-11-16T15:51:01.534Z,21.90
2022-11-16T15:53:39.566Z,16.60
2022-11-16T15:56:08.847Z,15.83
2022-11-16T15:58:40.590Z,15.33
2022-11-16T16:01:10.202Z,13.93
2022-11-16T16:03:38.044Z,14.43
2022-11-16T16:06:06.468Z,17.70
2022-11-16T16:08:42.071Z,18.03
2022-11-16T16:11:09.514Z,13.47
2022-11-16T16:13:38.648Z,15.00
2022-11-16T16:16:25.667Z,11.80
2022-11-16T16:18:54.266Z,11.27
2022-11-16T16:21:21.805Z,9.93
2022-11-16T16:27:53.384Z,12.90
2022-11-16T16:30:24.554Z,9.23
2022-11-16T16:32:53.038Z,13.07
2022-11-16T16:35:21.711Z,12.73
2022-11-16T16:37:52.905Z,13.03
2022-11-16T16:40:20.931Z,13.07
2022-11-16T16:42:48.646Z,11.40
2022-11-16T16:45:20.711Z,10.30
2022-11-16T16:47:52.464Z,9.00
2022-11-16T16:50:19.989Z,6.33
2022-11-16T16:52:50.707Z,7.60
2022-11-16T16:55:42.862Z,8.97
2022-11-16T16:58:13.785Z,9.23
2022-11-16T17:00:45.466Z,9.10
2022-11-16T17:03:14.947Z,7.87
2022-11-16T17:05:44.554Z,7.27
2022-11-16T17:08:12.674Z,8.70
2022-11-16T17:14:18.640Z,7.50
2022-11-16T17:16:46.100Z,9.80
2022-11-16T17:19:14.931Z,9.07
2022-11-16T17:21:44.044Z,7.80
2022-11-16T17:24:11.925Z,5.90
2022-11-16T17:26:39.938Z,5.10
2022-11-16T17:29:08.678Z,5.20
2022-11-16T17:31:37.725Z,6.37
2022-11-16T17:34:13.585Z,4.93
2022-11-16T17:36:46.300Z,7.70
2022-11-16T17:39:16.318Z,5.17
2022-11-16T17:41:45.998Z,6.80
2022-11-16T17:44:20.183Z,7.70
2022-11-16T17:46:48.985Z,8.00
2022-11-16T17:49:16.367Z,9.20
2022-11-16T17:51:44.434Z,6.87
2022-11-16T17:54:17.110Z,7.37
2022-11-16T17:56:45.820Z,7.23
2022-11-16T17:59:13.086Z,7.17
2022-11-16T18:01:41.894Z,9.73
2022-11-16T18:04:09.345Z,9.13
2022-11-16T18:06:36.915Z,13.63
2022-11-16T18:09:04.272Z,9.03
2022-11-16T18:11:31.631Z,9.47
2022-11-16T18:14:00.646Z,11.57
2022-11-16T18:16:29.303Z,11.17
2022-11-16T18:19:00.895Z,12.83
2022-11-16T18:21:28.627Z,8.00
2022-11-16T18:24:01.167Z,8.73
2022-11-16T18:27:19.095Z,7.63
2022-11-16T18:29:46.647Z,6.73
2022-11-16T18:32:14.213Z,7.20
2022-11-16T18:34:41.684Z,5.83
2022-11-16T18:37:10.875Z,5.13
2022-11-16T18:39:38.193Z,5.60
2022-11-16T18:42:06.047Z,4.67
2022-11-16T18:44:33.301Z,5.47
2022-11-16T18:47:02.636Z,6.40
2022-11-16T18:49:30.266Z,5.40
2022-11-16T18:52:02.275Z,6.90
2022-11-16T18:54:32.074Z,5.90
2022-11-16T18:56:59.869Z,6.57
2022-11-16T18:59:27.206Z,5.73
2022-11-16T19:01:54.714Z,5.97
2022-11-16T19:04:22.000Z,8.30
2022-11-16T19:06:50.151Z,8.93
2022-11-16T19:09:17.645Z,6.23
2022-11-16T19:12:17.781Z,6.90
2022-11-16T19:14:46.822Z,6.77
2022-11-16T19:17:15.083Z,7.33
2022-11-16T19:19:42.696Z,6.30
2022-11-16T19:22:30.359Z,8.57
2022-11-16T19:25:01.724Z,7.17
2022-11-16T19:27:35.036Z,8.60
2022-11-16T19:30:04.838Z,7.67
2022-11-16T19:32:32.233Z,9.67
2022-11-16T19:35:02.119Z,8.30
2022-11-16T19:37:32.533Z,9.77
2022-11-16T19:40:03.068Z,9.97
2022-11-16T19:42:32.890Z,11.33
2022-11-16T19:45:06.027Z,9.53
2022-11-16T19:47:34.234Z,11.53
2022-11-16T19:50:06.266Z,10.87
2022-11-16T19:52:36.319Z,10.63
2022-11-16T19:55:03.661Z,10.60
2022-11-16T19:57:32.276Z,10.53
2022-11-16T20:00:01.298Z,10.53
2022-11-16T20:02:29.731Z,11.07
2022-11-16T20:04:57.213Z,13.50
2022-11-16T20:07:24.683Z,12.77
2022-11-16T20:09:54.760Z,16.90
2022-11-16T20:12:24.168Z,13.80
2022-11-16T20:14:55.801Z,12.40
2022-11-16T20:17:24.072Z,14.13
2022-11-16T20:19:51.946Z,16.23
2022-11-16T20:22:20.962Z,13.70
2022-11-16T20:24:50.794Z,13.73
2022-11-16T20:27:37.765Z,14.87
2022-11-16T20:30:09.765Z,17.20
2022-11-16T20:32:38.295Z,15.13
2022-11-16T20:35:06.066Z,15.93
2022-11-16T20:37:39.008Z,16.50
2022-11-16T20:40:06.633Z,16.67
2022-11-16T20:42:34.039Z,14.07
2022-11-16T20:45:01.386Z,16.43
2022-11-16T20:47:31.197Z,16.40
2022-11-16T20:49:59.612Z,17.73
2022-11-16T20:52:26.995Z,16.33
2022-11-16T20:54:54.294Z,16.83
2022-11-16T20:57:22.190Z,16.73
2022-11-16T20:59:49.666Z,20.20
2022-11-16T21:02:16.953Z,18.90
2022-11-16T21:04:44.895Z,17.30
2022-11-16T21:07:12.271Z,17.33
2022-11-16T21:09:59.734Z,16.37
2022-11-16T21:12:45.860Z,19.70
2022-11-16T21:15:14.324Z,17.60
2022-11-16T21:17:41.736Z,18.87
2022-11-16T21:22:56.599Z,18.77
2022-11-16T21:25:24.343Z,19.47
2022-11-16T21:27:51.625Z,19.47
2022-11-16T21:30:19.015Z,17.47
2022-11-16T21:32:46.687Z,17.33
2022-11-16T21:35:14.005Z,17.43
2022-11-16T21:37:41.405Z,19.17
2022-11-16T21:40:14.678Z,16.60
2022-11-16T21:42:43.206Z,15.93
2022-11-16T21:45:13.237Z,17.07
2022-11-16T21:47:40.630Z,15.73
2022-11-16T21:50:30.696Z,15.97
2022-11-16T21:52:56.650Z,14.97
2022-11-16T21:55:26.929Z,16.07
2022-11-16T21:57:54.220Z,15.90
2022-11-16T22:00:21.966Z,16.23
2022-11-16T22:02:49.246Z,15.53
2022-11-16T22:05:55.007Z,14.80
2022-11-16T22:08:22.493Z,16.70
2022-11-16T22:10:51.176Z,14.63
2022-11-16T22:13:19.142Z,14.20
2022-11-16T22:15:46.778Z,15.10
2022-11-16T22:18:14.154Z,14.50
2022-11-16T22:20:43.612Z,14.17
2022-11-16T22:23:11.436Z,12.80
2022-11-16T22:25:39.194Z,13.10
2022-11-16T22:28:25.469Z,11.63
2022-11-16T22:30:59.933Z,11.07
2022-11-16T22:33:28.194Z,11.40
2022-11-16T22:35:55.635Z,11.53
2022-11-16T22:38:32.420Z,10.63
2022-11-16T22:41:02.355Z,10.40
2022-11-16T22:43:34.055Z,9.77
2022-11-16T22:46:04.643Z,9.33
2022-11-16T22:48:40.076Z,10.03
2022-11-16T22:51:09.772Z,9.10
2022-11-16T22:53:40.038Z,9.80
2022-11-16T22:56:12.356Z,9.87
2022-11-16T22:58:40.675Z,10.53
2022-11-16T23:01:09.788Z,9.63
2022-11-16T23:03:38.262Z,7.43
2022-11-16T23:06:07.986Z,10.67
2022-11-16T23:08:36.062Z,8.10
2022-11-16T23:11:23.902Z,8.77
2022-11-16T23:14:10.563Z,9.97
2022-11-16T23:16:40.894Z,8.30
2022-11-16T23:19:32.429Z,9.57
2022-11-16T23:22:18.959Z,7.07
2022-11-16T23:25:05.335Z,8.03
2022-11-16T23:27:41.576Z,7.17
2022-11-16T23:30:12.823Z,7.93
